NOZ123 ENTC-ENAL
Flight info
| Callsign | NOZ123 |
|---|---|
| Flight time | N/A |
| Altitude | 34000 |
| Route | AMIMO DCT DEKEB |
| Aircraft | B738/M-SDE2E3FGHIRWXY/LB1 |
Departure
| Time | 2026-04-30 14:05 |
|---|---|
| Airport | Tromsø Airport (ENTC) |
Arrival
| Time | N/A |
|---|---|
| Airport | Ålesund Airport (ENAL) |
| Time | Latitude | Longitude | Altitude | Speed | Heading |
|---|---|---|---|---|---|
| 2026-04-30 13:25 | 69.68015 | 18.90952 | 33 ft | 0 kts | 283° |
| 2026-04-30 13:46 | 69.68011 | 18.91005 | 30 ft | 4 kts | 283° |
| 2026-04-30 13:46 | 69.68004 | 18.91081 | 32 ft | 4 kts | 283° |
| 2026-04-30 13:47 | 69.67999 | 18.91142 | 31 ft | 3 kts | 282° |
| 2026-04-30 13:47 | 69.67998 | 18.91216 | 30 ft | 4 kts | 252° |
| 2026-04-30 13:47 | 69.68011 | 18.91277 | 33 ft | 4 kts | 214° |
| 2026-04-30 13:47 | 69.68026 | 18.91297 | 32 ft | 0 kts | 193° |
| 2026-04-30 13:59 | 69.68024 | 18.91294 | 31 ft | 0 kts | 209° |
| 2026-04-30 13:59 | 69.68025 | 18.91280 | 32 ft | 1 kts | 266° |
| 2026-04-30 13:59 | 69.68036 | 18.91272 | 32 ft | 3 kts | 358° |
| 2026-04-30 13:59 | 69.68071 | 18.91325 | 34 ft | 12 kts | 22° |
| 2026-04-30 14:00 | 69.68180 | 18.91399 | 46 ft | 19 kts | 12° |
| 2026-04-30 14:00 | 69.68398 | 18.91498 | 30 ft | 21 kts | 360° |
| 2026-04-30 14:00 | 69.68554 | 18.91569 | 24 ft | 23 kts | 14° |
| 2026-04-30 14:01 | 69.68706 | 18.91670 | 19 ft | 16 kts | 12° |
| 2026-04-30 14:01 | 69.68776 | 18.91852 | 19 ft | 11 kts | 98° |
| 2026-04-30 14:01 | 69.68775 | 18.91860 | 19 ft | 0 kts | 99° |
| 2026-04-30 14:01 | 69.68774 | 18.91875 | 19 ft | 5 kts | 101° |
| 2026-04-30 14:02 | 69.68759 | 18.92116 | 19 ft | 17 kts | 84° |
| 2026-04-30 14:02 | 69.68788 | 18.92189 | 20 ft | 12 kts | 18° |
| 2026-04-30 14:02 | 69.68915 | 18.92277 | 22 ft | 21 kts | 12° |
| 2026-04-30 14:02 | 69.69071 | 18.92381 | 22 ft | 25 kts | 13° |
| 2026-04-30 14:03 | 69.69249 | 18.92500 | 22 ft | 24 kts | 12° |
| 2026-04-30 14:03 | 69.69350 | 18.92654 | 20 ft | 17 kts | 7° |
| 2026-04-30 14:03 | 69.69376 | 18.92609 | 22 ft | 3 kts | 275° |
| 2026-04-30 14:03 | 69.69362 | 18.92574 | 22 ft | 3 kts | 195° |
| 2026-04-30 14:04 | 69.69339 | 18.92561 | 22 ft | 6 kts | 192° |
| 2026-04-30 14:04 | 69.69249 | 18.92500 | 22 ft | 27 kts | 193° |
| 2026-04-30 14:04 | 69.68822 | 18.92218 | 22 ft | 97 kts | 193° |
| 2026-04-30 14:04 | 69.67985 | 18.91658 | 128 ft | 141 kts | 193° |
| 2026-04-30 14:05 | 69.67018 | 18.91008 | 795 ft | 142 kts | 193° |
| 2026-04-30 14:05 | 69.66005 | 18.90356 | 1342 ft | 160 kts | 195° |
| 2026-04-30 14:05 | 69.64914 | 18.89620 | 2022 ft | 168 kts | 195° |
| 2026-04-30 14:05 | 69.63666 | 18.88788 | 2272 ft | 196 kts | 196° |
| 2026-04-30 14:06 | 69.62263 | 18.87854 | 2531 ft | 215 kts | 196° |
| 2026-04-30 14:06 | 69.59131 | 18.85790 | 3462 ft | 244 kts | 197° |
| 2026-04-30 14:07 | 69.55913 | 18.82696 | 5056 ft | 245 kts | 216° |
| 2026-04-30 14:07 | 69.54461 | 18.80103 | 5851 ft | 248 kts | 217° |
| 2026-04-30 14:07 | 69.52963 | 18.77505 | 6582 ft | 256 kts | 216° |
| 2026-04-30 14:08 | 69.49769 | 18.72798 | 8107 ft | 262 kts | 212° |
| 2026-04-30 14:08 | 69.48096 | 18.70437 | 8655 ft | 269 kts | 212° |
| 2026-04-30 14:08 | 69.44771 | 18.65703 | 10318 ft | 274 kts | 214° |
| 2026-04-30 14:09 | 69.43003 | 18.63105 | 10510 ft | 298 kts | 214° |
| 2026-04-30 14:09 | 69.41090 | 18.60282 | 10715 ft | 320 kts | 213° |
| 2026-04-30 14:09 | 69.37028 | 18.54351 | 11900 ft | 333 kts | 213° |
| 2026-04-30 14:10 | 69.34955 | 18.51333 | 12594 ft | 336 kts | 213° |
| 2026-04-30 14:10 | 69.32890 | 18.48333 | 13297 ft | 340 kts | 212° |
| 2026-04-30 14:10 | 69.30698 | 18.45401 | 14023 ft | 347 kts | 210° |
| 2026-04-30 14:10 | 69.28471 | 18.42643 | 14685 ft | 352 kts | 210° |
| 2026-04-30 14:11 | 69.26209 | 18.39905 | 15361 ft | 357 kts | 210° |
| 2026-04-30 14:11 | 69.23916 | 18.37135 | 16053 ft | 360 kts | 211° |
| 2026-04-30 14:11 | 69.21603 | 18.34326 | 16713 ft | 364 kts | 211° |
| 2026-04-30 14:11 | 69.19292 | 18.31506 | 17348 ft | 370 kts | 211° |
| 2026-04-30 14:12 | 69.16922 | 18.28606 | 17997 ft | 374 kts | 212° |
| 2026-04-30 14:12 | 69.14522 | 18.25667 | 18592 ft | 378 kts | 212° |
| 2026-04-30 14:12 | 69.12099 | 18.22703 | 19160 ft | 382 kts | 212° |
| 2026-04-30 14:12 | 69.10448 | 18.20687 | 19558 ft | 384 kts | 212° |
| 2026-04-30 14:13 | 69.07186 | 18.16713 | 20302 ft | 389 kts | 212° |
| 2026-04-30 14:13 | 69.04692 | 18.13683 | 20832 ft | 393 kts | 212° |
| 2026-04-30 14:13 | 69.02167 | 18.10622 | 21360 ft | 397 kts | 212° |
| 2026-04-30 14:13 | 68.99622 | 18.07547 | 21954 ft | 400 kts | 212° |
| 2026-04-30 14:14 | 68.97059 | 18.04465 | 22516 ft | 402 kts | 212° |
| 2026-04-30 14:14 | 68.94483 | 18.01368 | 23005 ft | 406 kts | 212° |
| 2026-04-30 14:14 | 68.91874 | 17.98235 | 23472 ft | 410 kts | 212° |
| 2026-04-30 14:14 | 68.89241 | 17.95071 | 23922 ft | 413 kts | 213° |
| 2026-04-30 14:15 | 68.86646 | 17.91715 | 24403 ft | 412 kts | 216° |
| 2026-04-30 14:15 | 68.84096 | 17.88120 | 24854 ft | 412 kts | 217° |
| 2026-04-30 14:15 | 68.81577 | 17.84308 | 25292 ft | 412 kts | 219° |
| 2026-04-30 14:15 | 68.79101 | 17.80326 | 25697 ft | 413 kts | 220° |
| 2026-04-30 14:16 | 68.76644 | 17.76211 | 26110 ft | 414 kts | 221° |
| 2026-04-30 14:16 | 68.74174 | 17.72084 | 26525 ft | 416 kts | 220° |
| 2026-04-30 14:16 | 68.71670 | 17.67992 | 26926 ft | 419 kts | 220° |
| 2026-04-30 14:16 | 68.69171 | 17.64012 | 27298 ft | 422 kts | 219° |
| 2026-04-30 14:17 | 68.66608 | 17.60020 | 27683 ft | 425 kts | 219° |
| 2026-04-30 14:17 | 68.64020 | 17.56053 | 28075 ft | 427 kts | 219° |
| 2026-04-30 14:17 | 68.61415 | 17.52098 | 28452 ft | 429 kts | 218° |
| 2026-04-30 14:17 | 68.58794 | 17.48136 | 28843 ft | 431 kts | 218° |
| 2026-04-30 14:18 | 68.56166 | 17.44182 | 29349 ft | 430 kts | 218° |
| 2026-04-30 14:18 | 68.53561 | 17.40277 | 29937 ft | 426 kts | 218° |
| 2026-04-30 14:18 | 68.49226 | 17.33793 | 30687 ft | 423 kts | 218° |
| 2026-04-30 14:19 | 68.44082 | 17.26095 | 31258 ft | 426 kts | 218° |
| 2026-04-30 14:19 | 68.41486 | 17.22226 | 31628 ft | 425 kts | 218° |
| 2026-04-30 14:19 | 68.38896 | 17.18382 | 31997 ft | 424 kts | 218° |
| 2026-04-30 14:20 | 68.36300 | 17.14537 | 32325 ft | 424 kts | 218° |
| 2026-04-30 14:20 | 68.33709 | 17.10709 | 32655 ft | 425 kts | 218° |
| 2026-04-30 14:20 | 68.28517 | 17.03072 | 33375 ft | 424 kts | 218° |
| 2026-04-30 14:21 | 68.25926 | 16.99276 | 33707 ft | 423 kts | 218° |
| 2026-04-30 14:21 | 68.23336 | 16.95492 | 33994 ft | 424 kts | 218° |
| 2026-04-30 14:21 | 68.18103 | 16.87862 | 34140 ft | 430 kts | 217° |
| 2026-04-30 14:22 | 68.15473 | 16.84048 | 34137 ft | 430 kts | 217° |
| 2026-04-30 14:22 | 68.07669 | 16.72816 | 34146 ft | 423 kts | 217° |
| 2026-04-30 14:23 | 67.97275 | 16.57943 | 34160 ft | 424 kts | 217° |
| 2026-04-30 14:24 | 67.89452 | 16.46852 | 34153 ft | 425 kts | 216° |
| 2026-04-30 14:25 | 67.79611 | 16.30245 | 34166 ft | 414 kts | 226° |
| 2026-04-30 14:26 | 67.72979 | 16.15942 | 34177 ft | 412 kts | 226° |
| 2026-04-30 14:27 | 67.66177 | 16.02013 | 34178 ft | 413 kts | 225° |
| 2026-04-30 14:27 | 67.61571 | 15.92991 | 34187 ft | 413 kts | 224° |
| 2026-04-30 14:28 | 67.54629 | 15.79570 | 34203 ft | 414 kts | 224° |
| 2026-04-30 14:28 | 67.49989 | 15.70649 | 34187 ft | 414 kts | 224° |
| 2026-04-30 14:29 | 67.40699 | 15.52909 | 34200 ft | 414 kts | 223° |
| 2026-04-30 14:31 | 67.29084 | 15.30972 | 34209 ft | 412 kts | 223° |
| 2026-04-30 14:31 | 67.22117 | 15.17941 | 34207 ft | 411 kts | 223° |
| 2026-04-30 14:32 | 67.15195 | 15.05089 | 34208 ft | 410 kts | 223° |
| 2026-04-30 14:33 | 67.10562 | 14.96538 | 34201 ft | 410 kts | 223° |
| 2026-04-30 14:33 | 67.03617 | 14.83795 | 34205 ft | 409 kts | 223° |
| 2026-04-30 14:34 | 66.98993 | 14.75362 | 34211 ft | 408 kts | 222° |
| 2026-04-30 14:34 | 66.94373 | 14.66975 | 34219 ft | 407 kts | 222° |
| 2026-04-30 14:35 | 66.87455 | 14.54496 | 34229 ft | 406 kts | 222° |
| 2026-04-30 14:36 | 66.82838 | 14.46211 | 34226 ft | 407 kts | 222° |
| 2026-04-30 14:36 | 66.78198 | 14.37923 | 34236 ft | 408 kts | 221° |
| 2026-04-30 14:37 | 66.73541 | 14.29647 | 34237 ft | 410 kts | 221° |
| 2026-04-30 14:37 | 66.68853 | 14.21355 | 34244 ft | 412 kts | 221° |
| 2026-04-30 14:38 | 66.64146 | 14.13069 | 34254 ft | 413 kts | 221° |
| 2026-04-30 14:38 | 66.59454 | 14.04852 | 34262 ft | 413 kts | 221° |
| 2026-04-30 14:39 | 66.54730 | 13.96618 | 34266 ft | 413 kts | 221° |
| 2026-04-30 14:39 | 66.50008 | 13.88425 | 34269 ft | 411 kts | 221° |
| 2026-04-30 14:40 | 66.42953 | 13.76256 | 34257 ft | 410 kts | 221° |
| 2026-04-30 14:40 | 66.38261 | 13.68207 | 34275 ft | 409 kts | 220° |
| 2026-04-30 14:41 | 66.33571 | 13.60198 | 34265 ft | 408 kts | 220° |
| 2026-04-30 14:41 | 66.28883 | 13.52230 | 34260 ft | 408 kts | 220° |
| 2026-04-30 14:42 | 66.24204 | 13.44314 | 34256 ft | 406 kts | 220° |
| 2026-04-30 14:42 | 66.19534 | 13.36451 | 34275 ft | 406 kts | 220° |
| 2026-04-30 14:43 | 66.14855 | 13.28604 | 34265 ft | 407 kts | 220° |
| 2026-04-30 14:43 | 66.10163 | 13.20772 | 34282 ft | 407 kts | 220° |
| 2026-04-30 14:44 | 66.05457 | 13.12952 | 34273 ft | 408 kts | 220° |
| 2026-04-30 14:44 | 66.00769 | 13.05199 | 34279 ft | 409 kts | 220° |
| 2026-04-30 14:45 | 65.96037 | 12.97410 | 34290 ft | 409 kts | 219° |
| 2026-04-30 14:45 | 65.91302 | 12.89651 | 34281 ft | 409 kts | 220° |
| 2026-04-30 14:46 | 65.86567 | 12.81927 | 34298 ft | 409 kts | 219° |
| 2026-04-30 14:46 | 65.81830 | 12.74232 | 34287 ft | 409 kts | 219° |
| 2026-04-30 14:47 | 65.77093 | 12.66572 | 34278 ft | 408 kts | 219° |
| 2026-04-30 14:47 | 65.72362 | 12.58959 | 34299 ft | 408 kts | 219° |
| 2026-04-30 14:48 | 65.67631 | 12.51378 | 34311 ft | 407 kts | 219° |
| 2026-04-30 14:48 | 65.62907 | 12.43843 | 34310 ft | 407 kts | 219° |
| 2026-04-30 14:49 | 65.58177 | 12.36329 | 34325 ft | 407 kts | 219° |
| 2026-04-30 14:49 | 65.53431 | 12.28821 | 34319 ft | 408 kts | 218° |
| 2026-04-30 14:50 | 65.46286 | 12.17585 | 34314 ft | 409 kts | 218° |
| 2026-04-30 14:51 | 65.39153 | 12.06443 | 34326 ft | 410 kts | 218° |
| 2026-04-30 14:52 | 65.31970 | 11.95297 | 34319 ft | 410 kts | 218° |
| 2026-04-30 14:52 | 65.24785 | 11.84221 | 34319 ft | 410 kts | 218° |
| 2026-04-30 14:53 | 65.17600 | 11.73216 | 34325 ft | 409 kts | 218° |
| 2026-04-30 14:54 | 65.08026 | 11.58662 | 34343 ft | 408 kts | 218° |
| 2026-04-30 14:55 | 65.00834 | 11.47814 | 34334 ft | 408 kts | 218° |
| 2026-04-30 14:56 | 64.91255 | 11.33473 | 34344 ft | 407 kts | 218° |
| 2026-04-30 14:57 | 64.84075 | 11.22802 | 34344 ft | 407 kts | 217° |
| 2026-04-30 14:58 | 64.74501 | 11.08681 | 34344 ft | 406 kts | 217° |
| 2026-04-30 14:58 | 64.67338 | 10.98193 | 34342 ft | 407 kts | 217° |
| 2026-04-30 15:00 | 64.55321 | 10.80746 | 34338 ft | 407 kts | 217° |
| 2026-04-30 15:01 | 64.45681 | 10.66883 | 34343 ft | 408 kts | 217° |
| 2026-04-30 15:01 | 64.38431 | 10.56532 | 34340 ft | 408 kts | 217° |
| 2026-04-30 15:02 | 64.33589 | 10.49654 | 34352 ft | 409 kts | 217° |
| 2026-04-30 15:03 | 64.21462 | 10.32561 | 34352 ft | 409 kts | 216° |
| 2026-04-30 15:04 | 64.09318 | 10.15618 | 34349 ft | 408 kts | 216° |
| 2026-04-30 15:06 | 63.98027 | 10.00024 | 34358 ft | 406 kts | 216° |
| 2026-04-30 15:07 | 63.88338 | 9.86754 | 34348 ft | 407 kts | 216° |
| 2026-04-30 15:08 | 63.78684 | 9.73650 | 34336 ft | 399 kts | 216° |
| 2026-04-30 15:08 | 63.71574 | 9.64062 | 34179 ft | 398 kts | 216° |
| 2026-04-30 15:09 | 63.66863 | 9.57742 | 33464 ft | 388 kts | 216° |
| 2026-04-30 15:09 | 63.62268 | 9.51606 | 32699 ft | 380 kts | 216° |
| 2026-04-30 15:10 | 63.57755 | 9.45594 | 31913 ft | 374 kts | 216° |
| 2026-04-30 15:11 | 63.48923 | 9.33893 | 30400 ft | 363 kts | 217° |
| 2026-04-30 15:11 | 63.44602 | 9.28197 | 29579 ft | 357 kts | 217° |
| 2026-04-30 15:12 | 63.38279 | 9.19897 | 28436 ft | 346 kts | 217° |
| 2026-04-30 15:13 | 63.34167 | 9.14522 | 27697 ft | 340 kts | 217° |
| 2026-04-30 15:14 | 63.28601 | 9.00360 | 26354 ft | 304 kts | 260° |
| 2026-04-30 15:14 | 63.26781 | 8.86742 | 25306 ft | 316 kts | 254° |
| 2026-04-30 15:16 | 63.25413 | 8.62683 | 23421 ft | 312 kts | 269° |
| 2026-04-30 15:17 | 63.25126 | 8.43861 | 22021 ft | 299 kts | 266° |
| 2026-04-30 15:18 | 63.24250 | 8.21414 | 20445 ft | 285 kts | 260° |
| 2026-04-30 15:19 | 63.23368 | 8.08507 | 19471 ft | 279 kts | 261° |